sensor_id;sensor_type;location;lat;lon;timestamp;P1;durP1;ratioP1;P2;durP2;ratioP2
45316;SDS011;31053;55.870;37.592;2023-02-12T00:00:07;4.50;;;2.20;;
45316;SDS011;31053;55.870;37.592;2023-02-12T00:03:19;6.22;;;3.08;;
45316;SDS011;31053;55.870;37.592;2023-02-12T00:06:24;2.20;;;1.27;;
45316;SDS011;31053;55.870;37.592;2023-02-12T00:09:29;3.55;;;1.83;;
45316;SDS011;31053;55.870;37.592;2023-02-12T00:12:34;2.72;;;1.58;;
45316;SDS011;31053;55.870;37.592;2023-02-12T00:15:39;3.97;;;1.30;;
45316;SDS011;31053;55.870;37.592;2023-02-12T00:18:44;3.92;;;1.95;;
45316;SDS011;31053;55.870;37.592;2023-02-12T00:21:48;4.82;;;1.92;;
45316;SDS011;31053;55.870;37.592;2023-02-12T00:24:53;6.65;;;2.45;;
45316;SDS011;31053;55.870;37.592;2023-02-12T00:27:58;6.22;;;3.05;;
45316;SDS011;31053;55.870;37.592;2023-02-12T00:31:07;5.07;;;2.28;;
45316;SDS011;31053;55.870;37.592;2023-02-12T00:34:16;5.20;;;2.08;;
45316;SDS011;31053;55.870;37.592;2023-02-12T00:37:20;5.35;;;2.00;;
45316;SDS011;31053;55.870;37.592;2023-02-12T00:40:24;8.98;;;3.40;;
45316;SDS011;31053;55.870;37.592;2023-02-12T00:43:29;8.88;;;3.17;;
45316;SDS011;31053;55.870;37.592;2023-02-12T00:46:34;8.30;;;2.95;;
45316;SDS011;31053;55.870;37.592;2023-02-12T00:49:39;4.32;;;2.03;;
45316;SDS011;31053;55.870;37.592;2023-02-12T00:52:44;4.40;;;2.10;;
45316;SDS011;31053;55.870;37.592;2023-02-12T00:55:49;4.17;;;1.70;;
45316;SDS011;31053;55.870;37.592;2023-02-12T00:58:54;4.78;;;1.95;;
45316;SDS011;31053;55.870;37.592;2023-02-12T01:01:58;6.95;;;2.38;;
45316;SDS011;31053;55.870;37.592;2023-02-12T01:05:03;2.50;;;1.60;;
45316;SDS011;31053;55.870;37.592;2023-02-12T01:08:09;2.72;;;1.58;;
45316;SDS011;31053;55.870;37.592;2023-02-12T01:11:15;7.68;;;2.88;;
45316;SDS011;31053;55.870;37.592;2023-02-12T01:14:20;3.30;;;1.60;;
45316;SDS011;31053;55.870;37.592;2023-02-12T01:17:24;6.20;;;1.52;;
45316;SDS011;31053;55.870;37.592;2023-02-12T01:20:29;5.05;;;2.38;;
45316;SDS011;31053;55.870;37.592;2023-02-12T01:23:34;4.72;;;1.40;;
45316;SDS011;31053;55.870;37.592;2023-02-12T01:26:39;7.05;;;2.60;;
45316;SDS011;31053;55.870;37.592;2023-02-12T01:29:43;9.82;;;2.88;;
45316;SDS011;31053;55.870;37.592;2023-02-12T01:32:48;10.13;;;3.88;;
45316;SDS011;31053;55.870;37.592;2023-02-12T01:35:53;4.57;;;1.95;;
45316;SDS011;31053;55.870;37.592;2023-02-12T01:38:58;3.45;;;1.80;;
45316;SDS011;31053;55.870;37.592;2023-02-12T01:42:02;3.08;;;1.88;;
45316;SDS011;31053;55.870;37.592;2023-02-12T01:48:16;5.60;;;2.35;;
45316;SDS011;31053;55.870;37.592;2023-02-12T01:51:22;3.55;;;2.03;;
45316;SDS011;31053;55.870;37.592;2023-02-12T01:54:27;5.78;;;1.88;;
45316;SDS011;31053;55.870;37.592;2023-02-12T01:57:33;1.77;;;1.42;;
45316;SDS011;31053;55.870;37.592;2023-02-12T02:00:39;4.95;;;1.80;;
45316;SDS011;31053;55.870;37.592;2023-02-12T02:03:45;6.70;;;1.75;;
45316;SDS011;31053;55.870;37.592;2023-02-12T02:06:52;3.30;;;1.38;;
45316;SDS011;31053;55.870;37.592;2023-02-12T02:10:00;5.25;;;1.65;;
45316;SDS011;31053;55.870;37.592;2023-02-12T02:13:07;5.28;;;1.00;;
45316;SDS011;31053;55.870;37.592;2023-02-12T02:16:30;1.33;;;0.70;;
45316;SDS011;31053;55.870;37.592;2023-02-12T02:43:36;3.63;;;1.20;;
45316;SDS011;31053;55.870;37.592;2023-02-12T02:46:44;1.35;;;0.98;;
45316;SDS011;31053;55.870;37.592;2023-02-12T02:49:52;1.70;;;1.02;;
45316;SDS011;31053;55.870;37.592;2023-02-12T02:53:03;3.22;;;1.45;;
45316;SDS011;31053;55.870;37.592;2023-02-12T02:56:12;1.95;;;0.98;;
45316;SDS011;31053;55.870;37.592;2023-02-12T02:59:39;4.47;;;1.50;;
45316;SDS011;31053;55.870;37.592;2023-02-12T03:02:57;4.88;;;2.00;;
45316;SDS011;31053;55.870;37.592;2023-02-12T03:06:13;3.17;;;1.50;;
45316;SDS011;31053;55.870;37.592;2023-02-12T03:09:22;5.43;;;2.63;;
45316;SDS011;31053;55.870;37.592;2023-02-12T03:12:59;6.63;;;2.60;;
45316;SDS011;31053;55.870;37.592;2023-02-12T03:16:09;7.00;;;1.58;;
45316;SDS011;31053;55.870;37.592;2023-02-12T03:19:18;4.70;;;1.98;;
45316;SDS011;31053;55.870;37.592;2023-02-12T03:22:27;8.77;;;1.95;;
45316;SDS011;31053;55.870;37.592;2023-02-12T03:28:45;3.00;;;1.15;;
45316;SDS011;31053;55.870;37.592;2023-02-12T03:31:54;4.50;;;1.40;;
45316;SDS011;31053;55.870;37.592;2023-02-12T03:38:24;4.28;;;0.93;;
45316;SDS011;31053;55.870;37.592;2023-02-12T03:41:57;3.15;;;1.00;;
45316;SDS011;31053;55.870;37.592;2023-02-12T03:45:09;5.00;;;1.48;;
45316;SDS011;31053;55.870;37.592;2023-02-12T03:52:31;5.55;;;1.10;;
45316;SDS011;31053;55.870;37.592;2023-02-12T03:55:35;6.60;;;1.70;;
45316;SDS011;31053;55.870;37.592;2023-02-12T03:58:43;1.52;;;0.80;;
45316;SDS011;31053;55.870;37.592;2023-02-12T04:01:49;3.20;;;1.20;;
45316;SDS011;31053;55.870;37.592;2023-02-12T04:04:55;5.30;;;1.52;;
45316;SDS011;31053;55.870;37.592;2023-02-12T04:08:00;3.33;;;1.40;;
45316;SDS011;31053;55.870;37.592;2023-02-12T04:11:07;4.75;;;1.75;;
45316;SDS011;31053;55.870;37.592;2023-02-12T04:27:59;2.05;;;0.85;;
45316;SDS011;31053;55.870;37.592;2023-02-12T04:31:51;2.17;;;1.20;;
45316;SDS011;31053;55.870;37.592;2023-02-12T04:38:24;4.32;;;1.35;;
45316;SDS011;31053;55.870;37.592;2023-02-12T04:44:39;1.45;;;0.93;;
45316;SDS011;31053;55.870;37.592;2023-02-12T04:47:45;2.88;;;0.90;;
45316;SDS011;31053;55.870;37.592;2023-02-12T04:50:50;1.85;;;0.77;;
45316;SDS011;31053;55.870;37.592;2023-02-12T04:53:55;1.85;;;1.23;;
45316;SDS011;31053;55.870;37.592;2023-02-12T04:57:00;2.42;;;0.57;;
45316;SDS011;31053;55.870;37.592;2023-02-12T05:00:07;3.95;;;0.85;;
45316;SDS011;31053;55.870;37.592;2023-02-12T05:03:12;1.40;;;1.02;;
45316;SDS011;31053;55.870;37.592;2023-02-12T05:06:17;4.70;;;1.35;;
45316;SDS011;31053;55.870;37.592;2023-02-12T05:09:26;3.97;;;1.00;;
45316;SDS011;31053;55.870;37.592;2023-02-12T05:12:30;1.17;;;0.60;;
45316;SDS011;31053;55.870;37.592;2023-02-12T05:15:37;4.55;;;1.17;;
45316;SDS011;31053;55.870;37.592;2023-02-12T05:18:42;8.25;;;1.52;;
45316;SDS011;31053;55.870;37.592;2023-02-12T05:21:51;0.82;;;0.60;;
45316;SDS011;31053;55.870;37.592;2023-02-12T05:24:56;0.40;;;0.32;;
45316;SDS011;31053;55.870;37.592;2023-02-12T05:28:00;3.17;;;0.80;;
45316;SDS011;31053;55.870;37.592;2023-02-12T05:31:06;2.05;;;0.88;;
45316;SDS011;31053;55.870;37.592;2023-02-12T05:34:13;1.65;;;0.45;;
45316;SDS011;31053;55.870;37.592;2023-02-12T05:37:17;1.55;;;0.43;;
45316;SDS011;31053;55.870;37.592;2023-02-12T05:40:21;1.13;;;0.57;;
45316;SDS011;31053;55.870;37.592;2023-02-12T05:43:26;1.75;;;1.00;;
45316;SDS011;31053;55.870;37.592;2023-02-12T05:46:31;1.00;;;0.63;;
45316;SDS011;31053;55.870;37.592;2023-02-12T05:49:35;0.57;;;0.40;;
45316;SDS011;31053;55.870;37.592;2023-02-12T05:52:40;0.77;;;0.40;;
45316;SDS011;31053;55.870;37.592;2023-02-12T05:55:44;2.78;;;0.70;;
45316;SDS011;31053;55.870;37.592;2023-02-12T05:58:53;1.67;;;0.40;;
45316;SDS011;31053;55.870;37.592;2023-02-12T06:01:59;0.40;;;0.40;;
45316;SDS011;31053;55.870;37.592;2023-02-12T06:05:04;2.93;;;0.80;;
45316;SDS011;31053;55.870;37.592;2023-02-12T06:08:10;0.68;;;0.68;;
45316;SDS011;31053;55.870;37.592;2023-02-12T06:11:15;3.40;;;0.85;;
45316;SDS011;31053;55.870;37.592;2023-02-12T06:14:20;0.68;;;0.50;;
45316;SDS011;31053;55.870;37.592;2023-02-12T06:17:25;2.75;;;0.30;;
45316;SDS011;31053;55.870;37.592;2023-02-12T06:20:30;9.00;;;0.77;;
45316;SDS011;31053;55.870;37.592;2023-02-12T06:23:35;1.52;;;0.50;;
45316;SDS011;31053;55.870;37.592;2023-02-12T06:26:40;0.20;;;0.20;;
45316;SDS011;31053;55.870;37.592;2023-02-12T06:29:45;3.80;;;0.40;;
45316;SDS011;31053;55.870;37.592;2023-02-12T06:32:49;0.30;;;0.30;;
45316;SDS011;31053;55.870;37.592;2023-02-12T06:35:54;0.52;;;0.38;;
45316;SDS011;31053;55.870;37.592;2023-02-12T06:39:00;2.40;;;0.68;;
45316;SDS011;31053;55.870;37.592;2023-02-12T06:42:05;0.85;;;0.40;;
45316;SDS011;31053;55.870;37.592;2023-02-12T06:45:10;3.00;;;0.65;;
45316;SDS011;31053;55.870;37.592;2023-02-12T06:48:14;0.88;;;0.60;;
45316;SDS011;31053;55.870;37.592;2023-02-12T06:51:20;0.40;;;0.30;;
45316;SDS011;31053;55.870;37.592;2023-02-12T06:54:39;0.50;;;0.40;;
45316;SDS011;31053;55.870;37.592;2023-02-12T06:59:23;0.20;;;0.20;;
45316;SDS011;31053;55.870;37.592;2023-02-12T07:02:28;0.93;;;0.40;;
45316;SDS011;31053;55.870;37.592;2023-02-12T07:05:32;1.00;;;0.50;;
45316;SDS011;31053;55.870;37.592;2023-02-12T07:08:40;0.63;;;0.60;;
45316;SDS011;31053;55.870;37.592;2023-02-12T07:11:45;1.02;;;0.60;;
45316;SDS011;31053;55.870;37.592;2023-02-12T07:14:50;3.35;;;0.52;;
45316;SDS011;31053;55.870;37.592;2023-02-12T07:17:55;2.72;;;1.10;;
45316;SDS011;31053;55.870;37.592;2023-02-12T07:21:00;0.75;;;0.50;;
45316;SDS011;31053;55.870;37.592;2023-02-12T07:24:04;4.38;;;0.68;;
45316;SDS011;31053;55.870;37.592;2023-02-12T07:27:09;4.15;;;0.52;;
45316;SDS011;31053;55.870;37.592;2023-02-12T07:30:14;2.85;;;0.60;;
45316;SDS011;31053;55.870;37.592;2023-02-12T07:33:19;1.15;;;0.43;;
45316;SDS011;31053;55.870;37.592;2023-02-12T07:36:25;2.10;;;0.60;;
45316;SDS011;31053;55.870;37.592;2023-02-12T07:39:31;0.90;;;0.50;;
45316;SDS011;31053;55.870;37.592;2023-02-12T07:42:35;0.30;;;0.30;;
45316;SDS011;31053;55.870;37.592;2023-02-12T07:45:43;0.50;;;0.40;;
45316;SDS011;31053;55.870;37.592;2023-02-12T07:48:49;0.55;;;0.55;;
45316;SDS011;31053;55.870;37.592;2023-02-12T07:51:54;1.40;;;0.30;;
45316;SDS011;31053;55.870;37.592;2023-02-12T07:55:00;1.90;;;0.60;;
45316;SDS011;31053;55.870;37.592;2023-02-12T07:58:13;1.10;;;0.63;;
45316;SDS011;31053;55.870;37.592;2023-02-12T08:04:31;1.75;;;0.82;;
45316;SDS011;31053;55.870;37.592;2023-02-12T08:07:35;1.23;;;0.38;;
45316;SDS011;31053;55.870;37.592;2023-02-12T08:10:40;1.88;;;0.60;;
45316;SDS011;31053;55.870;37.592;2023-02-12T08:13:45;0.32;;;0.30;;
45316;SDS011;31053;55.870;37.592;2023-02-12T08:16:50;1.00;;;0.30;;
45316;SDS011;31053;55.870;37.592;2023-02-12T08:19:55;4.28;;;0.82;;
45316;SDS011;31053;55.870;37.592;2023-02-12T08:23:00;0.30;;;0.30;;
45316;SDS011;31053;55.870;37.592;2023-02-12T08:33:22;1.48;;;0.50;;
45316;SDS011;31053;55.870;37.592;2023-02-12T08:36:52;2.70;;;0.85;;
45316;SDS011;31053;55.870;37.592;2023-02-12T08:39:58;0.68;;;0.40;;
45316;SDS011;31053;55.870;37.592;2023-02-12T08:43:03;1.83;;;0.60;;
45316;SDS011;31053;55.870;37.592;2023-02-12T08:46:09;1.17;;;0.50;;
45316;SDS011;31053;55.870;37.592;2023-02-12T08:49:15;0.55;;;0.50;;
45316;SDS011;31053;55.870;37.592;2023-02-12T08:52:23;3.60;;;0.52;;
45316;SDS011;31053;55.870;37.592;2023-02-12T08:55:28;0.50;;;0.35;;
45316;SDS011;31053;55.870;37.592;2023-02-12T08:58:33;0.45;;;0.30;;
45316;SDS011;31053;55.870;37.592;2023-02-12T09:01:38;0.88;;;0.40;;
45316;SDS011;31053;55.870;37.592;2023-02-12T09:04:46;2.13;;;0.75;;
45316;SDS011;31053;55.870;37.592;2023-02-12T09:07:52;0.63;;;0.25;;
45316;SDS011;31053;55.870;37.592;2023-02-12T09:10:56;0.63;;;0.30;;
45316;SDS011;31053;55.870;37.592;2023-02-12T09:14:02;1.55;;;0.40;;
45316;SDS011;31053;55.870;37.592;2023-02-12T09:17:08;0.52;;;0.32;;
45316;SDS011;31053;55.870;37.592;2023-02-12T09:20:14;0.75;;;0.57;;
45316;SDS011;31053;55.870;37.592;2023-02-12T09:23:20;2.85;;;0.57;;
45316;SDS011;31053;55.870;37.592;2023-02-12T09:26:24;2.20;;;0.57;;
45316;SDS011;31053;55.870;37.592;2023-02-12T09:29:30;2.47;;;0.57;;
45316;SDS011;31053;55.870;37.592;2023-02-12T09:32:34;0.20;;;0.20;;
45316;SDS011;31053;55.870;37.592;2023-02-12T09:35:39;3.10;;;0.40;;
45316;SDS011;31053;55.870;37.592;2023-02-12T09:38:43;0.40;;;0.30;;
45316;SDS011;31053;55.870;37.592;2023-02-12T09:45:22;8.88;;;0.70;;
45316;SDS011;31053;55.870;37.592;2023-02-12T09:51:59;9.15;;;1.05;;
45316;SDS011;31053;55.870;37.592;2023-02-12T09:55:04;1.08;;;0.43;;
45316;SDS011;31053;55.870;37.592;2023-02-12T09:58:11;4.80;;;0.85;;
45316;SDS011;31053;55.870;37.592;2023-02-12T10:01:20;2.30;;;0.45;;
45316;SDS011;31053;55.870;37.592;2023-02-12T10:04:25;3.57;;;0.93;;
45316;SDS011;31053;55.870;37.592;2023-02-12T10:11:22;2.75;;;0.90;;
45316;SDS011;31053;55.870;37.592;2023-02-12T10:21:17;1.85;;;0.63;;
45316;SDS011;31053;55.870;37.592;2023-02-12T10:25:08;1.55;;;0.50;;
45316;SDS011;31053;55.870;37.592;2023-02-12T10:31:40;0.75;;;0.35;;
45316;SDS011;31053;55.870;37.592;2023-02-12T10:34:47;1.77;;;0.55;;
45316;SDS011;31053;55.870;37.592;2023-02-12T10:37:56;5.50;;;0.40;;
45316;SDS011;31053;55.870;37.592;2023-02-12T10:41:04;1.67;;;0.75;;
45316;SDS011;31053;55.870;37.592;2023-02-12T10:44:09;1.58;;;0.50;;
45316;SDS011;31053;55.870;37.592;2023-02-12T10:47:19;0.50;;;0.40;;
45316;SDS011;31053;55.870;37.592;2023-02-12T10:50:48;0.40;;;0.38;;
45316;SDS011;31053;55.870;37.592;2023-02-12T10:54:45;15.75;;;1.05;;
45316;SDS011;31053;55.870;37.592;2023-02-12T10:57:44;2.22;;;0.50;;
45316;SDS011;31053;55.870;37.592;2023-02-12T11:00:56;3.85;;;0.50;;
45316;SDS011;31053;55.870;37.592;2023-02-12T11:04:24;4.97;;;1.27;;
45316;SDS011;31053;55.870;37.592;2023-02-12T11:07:31;4.20;;;0.63;;
45316;SDS011;31053;55.870;37.592;2023-02-12T11:10:50;2.17;;;0.80;;
45316;SDS011;31053;55.870;37.592;2023-02-12T11:13:59;2.97;;;0.70;;
45316;SDS011;31053;55.870;37.592;2023-02-12T11:17:09;11.80;;;0.90;;
45316;SDS011;31053;55.870;37.592;2023-02-12T11:20:48;3.63;;;0.60;;
45316;SDS011;31053;55.870;37.592;2023-02-12T11:23:54;1.05;;;0.60;;
45316;SDS011;31053;55.870;37.592;2023-02-12T11:30:19;7.90;;;1.10;;
45316;SDS011;31053;55.870;37.592;2023-02-12T11:33:35;1.77;;;0.80;;
45316;SDS011;31053;55.870;37.592;2023-02-12T11:36:44;6.40;;;0.95;;
45316;SDS011;31053;55.870;37.592;2023-02-12T11:39:50;1.85;;;0.75;;
45316;SDS011;31053;55.870;37.592;2023-02-12T11:42:55;4.03;;;0.73;;
45316;SDS011;31053;55.870;37.592;2023-02-12T11:46:02;3.58;;;0.50;;
45316;SDS011;31053;55.870;37.592;2023-02-12T11:49:07;6.68;;;1.08;;
45316;SDS011;31053;55.870;37.592;2023-02-12T11:52:19;1.45;;;0.63;;
45316;SDS011;31053;55.870;37.592;2023-02-12T11:55:27;2.38;;;0.50;;
45316;SDS011;31053;55.870;37.592;2023-02-12T11:58:34;2.53;;;0.77;;
45316;SDS011;31053;55.870;37.592;2023-02-12T12:01:38;1.52;;;0.77;;
45316;SDS011;31053;55.870;37.592;2023-02-12T12:04:49;2.90;;;0.60;;
45316;SDS011;31053;55.870;37.592;2023-02-12T12:07:57;3.00;;;0.50;;
45316;SDS011;31053;55.870;37.592;2023-02-12T12:14:33;2.60;;;0.82;;
45316;SDS011;31053;55.870;37.592;2023-02-12T12:22:11;2.03;;;0.70;;
45316;SDS011;31053;55.870;37.592;2023-02-12T12:25:30;0.95;;;0.65;;
45316;SDS011;31053;55.870;37.592;2023-02-12T12:28:40;4.78;;;0.70;;
45316;SDS011;31053;55.870;37.592;2023-02-12T12:31:49;5.95;;;1.30;;
45316;SDS011;31053;55.870;37.592;2023-02-12T12:34:57;5.22;;;1.17;;
45316;SDS011;31053;55.870;37.592;2023-02-12T12:41:36;3.40;;;1.08;;
45316;SDS011;31053;55.870;37.592;2023-02-12T12:51:42;1.80;;;0.70;;
45316;SDS011;31053;55.870;37.592;2023-02-12T12:55:22;2.25;;;0.82;;
45316;SDS011;31053;55.870;37.592;2023-02-12T13:05:46;1.50;;;0.80;;
45316;SDS011;31053;55.870;37.592;2023-02-12T13:12:53;2.10;;;0.70;;
45316;SDS011;31053;55.870;37.592;2023-02-12T13:19:19;1.15;;;0.75;;
45316;SDS011;31053;55.870;37.592;2023-02-12T13:29:45;3.60;;;1.20;;
45316;SDS011;31053;55.870;37.592;2023-02-12T13:36:11;4.07;;;0.95;;
45316;SDS011;31053;55.870;37.592;2023-02-12T13:39:21;2.33;;;0.85;;
45316;SDS011;31053;55.870;37.592;2023-02-12T13:52:48;2.13;;;0.85;;
45316;SDS011;31053;55.870;37.592;2023-02-12T14:05:41;7.95;;;1.33;;
45316;SDS011;31053;55.870;37.592;2023-02-12T14:08:48;10.10;;;1.67;;
45316;SDS011;31053;55.870;37.592;2023-02-12T14:11:55;3.88;;;1.13;;
45316;SDS011;31053;55.870;37.592;2023-02-12T14:15:24;2.15;;;0.70;;
45316;SDS011;31053;55.870;37.592;2023-02-12T14:18:52;2.83;;;0.68;;
45316;SDS011;31053;55.870;37.592;2023-02-12T14:29:20;2.13;;;0.85;;
45316;SDS011;31053;55.870;37.592;2023-02-12T14:45:43;3.65;;;1.00;;
45316;SDS011;31053;55.870;37.592;2023-02-12T14:49:03;5.68;;;1.00;;
45316;SDS011;31053;55.870;37.592;2023-02-12T14:55:38;4.43;;;1.45;;
45316;SDS011;31053;55.870;37.592;2023-02-12T14:58:49;6.00;;;1.02;;
45316;SDS011;31053;55.870;37.592;2023-02-12T15:02:14;6.05;;;1.17;;
45316;SDS011;31053;55.870;37.592;2023-02-12T15:05:40;3.25;;;0.88;;
45316;SDS011;31053;55.870;37.592;2023-02-12T15:09:02;4.88;;;1.45;;
45316;SDS011;31053;55.870;37.592;2023-02-12T15:12:21;3.25;;;0.88;;
45316;SDS011;31053;55.870;37.592;2023-02-12T15:15:54;2.58;;;0.63;;
45316;SDS011;31053;55.870;37.592;2023-02-12T15:22:41;3.28;;;1.27;;
45316;SDS011;31053;55.870;37.592;2023-02-12T15:25:49;5.53;;;1.58;;
45316;SDS011;31053;55.870;37.592;2023-02-12T15:28:56;3.25;;;1.15;;
45316;SDS011;31053;55.870;37.592;2023-02-12T15:32:04;3.08;;;1.45;;
45316;SDS011;31053;55.870;37.592;2023-02-12T15:35:21;3.55;;;1.13;;
45316;SDS011;31053;55.870;37.592;2023-02-12T15:38:36;4.65;;;1.15;;
45316;SDS011;31053;55.870;37.592;2023-02-12T15:41:44;3.05;;;1.15;;
45316;SDS011;31053;55.870;37.592;2023-02-12T15:44:49;2.72;;;1.10;;
45316;SDS011;31053;55.870;37.592;2023-02-12T15:47:56;2.78;;;1.15;;
45316;SDS011;31053;55.870;37.592;2023-02-12T15:51:37;2.90;;;1.05;;
45316;SDS011;31053;55.870;37.592;2023-02-12T15:54:44;3.47;;;1.00;;
45316;SDS011;31053;55.870;37.592;2023-02-12T15:57:53;1.92;;;0.93;;
45316;SDS011;31053;55.870;37.592;2023-02-12T16:01:00;5.32;;;1.25;;
45316;SDS011;31053;55.870;37.592;2023-02-12T16:04:07;1.92;;;0.93;;
45316;SDS011;31053;55.870;37.592;2023-02-12T16:07:16;2.67;;;1.23;;
45316;SDS011;31053;55.870;37.592;2023-02-12T16:10:22;2.35;;;1.10;;
45316;SDS011;31053;55.870;37.592;2023-02-12T16:13:31;7.80;;;0.93;;
45316;SDS011;31053;55.870;37.592;2023-02-12T16:16:44;5.82;;;1.50;;
45316;SDS011;31053;55.870;37.592;2023-02-12T16:19:56;2.50;;;1.15;;
45316;SDS011;31053;55.870;37.592;2023-02-12T16:23:04;2.55;;;0.98;;
45316;SDS011;31053;55.870;37.592;2023-02-12T16:26:44;2.55;;;1.02;;
45316;SDS011;31053;55.870;37.592;2023-02-12T16:36:52;1.67;;;1.00;;
45316;SDS011;31053;55.870;37.592;2023-02-12T16:43:25;4.97;;;1.45;;
45316;SDS011;31053;55.870;37.592;2023-02-12T16:46:30;3.33;;;1.13;;
45316;SDS011;31053;55.870;37.592;2023-02-12T16:49:36;5.28;;;0.88;;
45316;SDS011;31053;55.870;37.592;2023-02-12T16:52:42;3.07;;;1.40;;
45316;SDS011;31053;55.870;37.592;2023-02-12T16:55:48;3.72;;;1.15;;
45316;SDS011;31053;55.870;37.592;2023-02-12T16:59:04;10.13;;;1.42;;
45316;SDS011;31053;55.870;37.592;2023-02-12T17:02:12;6.57;;;1.60;;
45316;SDS011;31053;55.870;37.592;2023-02-12T17:05:17;2.13;;;1.15;;
45316;SDS011;31053;55.870;37.592;2023-02-12T17:08:22;4.63;;;1.00;;
45316;SDS011;31053;55.870;37.592;2023-02-12T17:11:27;2.50;;;0.80;;
45316;SDS011;31053;55.870;37.592;2023-02-12T17:14:34;3.20;;;1.27;;
45316;SDS011;31053;55.870;37.592;2023-02-12T17:17:39;2.13;;;1.00;;
45316;SDS011;31053;55.870;37.592;2023-02-12T17:20:49;4.60;;;1.30;;
45316;SDS011;31053;55.870;37.592;2023-02-12T17:23:59;4.07;;;1.67;;
45316;SDS011;31053;55.870;37.592;2023-02-12T17:27:07;4.93;;;1.58;;
45316;SDS011;31053;55.870;37.592;2023-02-12T17:30:26;2.33;;;0.90;;
45316;SDS011;31053;55.870;37.592;2023-02-12T17:33:36;4.50;;;1.55;;
45316;SDS011;31053;55.870;37.592;2023-02-12T17:36:41;5.97;;;1.48;;
45316;SDS011;31053;55.870;37.592;2023-02-12T17:39:46;11.13;;;2.17;;
45316;SDS011;31053;55.870;37.592;2023-02-12T17:42:51;7.93;;;1.85;;
45316;SDS011;31053;55.870;37.592;2023-02-12T17:45:56;4.18;;;1.88;;
45316;SDS011;31053;55.870;37.592;2023-02-12T17:49:00;4.85;;;1.73;;
45316;SDS011;31053;55.870;37.592;2023-02-12T17:52:05;4.10;;;1.85;;
45316;SDS011;31053;55.870;37.592;2023-02-12T17:55:10;4.28;;;1.30;;
45316;SDS011;31053;55.870;37.592;2023-02-12T17:58:16;7.95;;;1.55;;
45316;SDS011;31053;55.870;37.592;2023-02-12T18:01:22;1.92;;;1.23;;
45316;SDS011;31053;55.870;37.592;2023-02-12T18:04:26;2.90;;;1.33;;
45316;SDS011;31053;55.870;37.592;2023-02-12T18:07:32;3.13;;;1.50;;
45316;SDS011;31053;55.870;37.592;2023-02-12T18:10:40;4.43;;;1.85;;
45316;SDS011;31053;55.870;37.592;2023-02-12T18:13:45;9.52;;;1.77;;
45316;SDS011;31053;55.870;37.592;2023-02-12T18:16:50;3.25;;;1.08;;
45316;SDS011;31053;55.870;37.592;2023-02-12T18:19:58;3.95;;;1.55;;
45316;SDS011;31053;55.870;37.592;2023-02-12T18:23:03;4.78;;;1.83;;
45316;SDS011;31053;55.870;37.592;2023-02-12T18:26:17;4.53;;;1.45;;
45316;SDS011;31053;55.870;37.592;2023-02-12T18:29:22;6.28;;;1.60;;
45316;SDS011;31053;55.870;37.592;2023-02-12T18:32:29;4.25;;;1.40;;
45316;SDS011;31053;55.870;37.592;2023-02-12T18:35:40;3.58;;;1.58;;
45316;SDS011;31053;55.870;37.592;2023-02-12T18:38:48;6.57;;;1.58;;
45316;SDS011;31053;55.870;37.592;2023-02-12T18:41:54;5.82;;;2.13;;
45316;SDS011;31053;55.870;37.592;2023-02-12T18:45:00;2.00;;;0.85;;
45316;SDS011;31053;55.870;37.592;2023-02-12T18:48:23;6.85;;;3.00;;
45316;SDS011;31053;55.870;37.592;2023-02-12T18:51:40;5.10;;;1.83;;
45316;SDS011;31053;55.870;37.592;2023-02-12T18:55:05;4.03;;;1.58;;
45316;SDS011;31053;55.870;37.592;2023-02-12T18:58:10;3.87;;;1.60;;
45316;SDS011;31053;55.870;37.592;2023-02-12T19:01:17;3.87;;;1.40;;
45316;SDS011;31053;55.870;37.592;2023-02-12T19:04:45;9.93;;;2.28;;
45316;SDS011;31053;55.870;37.592;2023-02-12T19:08:00;4.57;;;1.70;;
45316;SDS011;31053;55.870;37.592;2023-02-12T19:11:12;6.72;;;1.50;;
45316;SDS011;31053;55.870;37.592;2023-02-12T19:14:20;7.35;;;2.08;;
45316;SDS011;31053;55.870;37.592;2023-02-12T19:20:49;5.85;;;1.80;;
45316;SDS011;31053;55.870;37.592;2023-02-12T19:28:57;4.38;;;1.48;;
45316;SDS011;31053;55.870;37.592;2023-02-12T19:32:09;4.68;;;2.20;;
45316;SDS011;31053;55.870;37.592;2023-02-12T19:35:15;6.53;;;2.40;;
45316;SDS011;31053;55.870;37.592;2023-02-12T19:38:27;8.90;;;2.60;;
45316;SDS011;31053;55.870;37.592;2023-02-12T19:41:43;7.45;;;2.55;;
45316;SDS011;31053;55.870;37.592;2023-02-12T19:45:36;3.83;;;1.65;;
45316;SDS011;31053;55.870;37.592;2023-02-12T19:49:18;7.05;;;1.67;;
45316;SDS011;31053;55.870;37.592;2023-02-12T19:52:29;3.40;;;1.60;;
45316;SDS011;31053;55.870;37.592;2023-02-12T19:55:38;5.13;;;2.25;;
45316;SDS011;31053;55.870;37.592;2023-02-12T19:59:19;4.00;;;1.60;;
45316;SDS011;31053;55.870;37.592;2023-02-12T20:02:39;4.00;;;1.83;;
45316;SDS011;31053;55.870;37.592;2023-02-12T20:09:29;3.05;;;1.27;;
45316;SDS011;31053;55.870;37.592;2023-02-12T20:12:38;3.85;;;1.50;;
45316;SDS011;31053;55.870;37.592;2023-02-12T20:15:54;2.13;;;1.13;;
45316;SDS011;31053;55.870;37.592;2023-02-12T20:19:16;3.90;;;1.75;;
45316;SDS011;31053;55.870;37.592;2023-02-12T20:22:33;3.83;;;1.90;;
45316;SDS011;31053;55.870;37.592;2023-02-12T20:25:43;6.75;;;1.63;;
45316;SDS011;31053;55.870;37.592;2023-02-12T20:28:58;4.07;;;1.45;;
45316;SDS011;31053;55.870;37.592;2023-02-12T20:32:06;5.70;;;1.77;;
45316;SDS011;31053;55.870;37.592;2023-02-12T20:35:32;6.68;;;1.90;;
45316;SDS011;31053;55.870;37.592;2023-02-12T20:38:43;8.30;;;2.00;;
45316;SDS011;31053;55.870;37.592;2023-02-12T20:48:23;5.10;;;1.92;;
45316;SDS011;31053;55.870;37.592;2023-02-12T20:51:35;3.88;;;1.73;;
45316;SDS011;31053;55.870;37.592;2023-02-12T20:54:45;4.07;;;1.98;;
45316;SDS011;31053;55.870;37.592;2023-02-12T20:57:54;6.20;;;2.75;;
45316;SDS011;31053;55.870;37.592;2023-02-12T21:01:04;5.63;;;2.33;;
45316;SDS011;31053;55.870;37.592;2023-02-12T21:04:15;5.32;;;2.00;;
45316;SDS011;31053;55.870;37.592;2023-02-12T21:07:25;5.90;;;1.40;;
45316;SDS011;31053;55.870;37.592;2023-02-12T21:10:30;8.27;;;3.10;;
45316;SDS011;31053;55.870;37.592;2023-02-12T21:13:43;5.20;;;2.10;;
45316;SDS011;31053;55.870;37.592;2023-02-12T21:16:56;7.75;;;1.83;;
45316;SDS011;31053;55.870;37.592;2023-02-12T21:20:09;5.28;;;1.20;;
45316;SDS011;31053;55.870;37.592;2023-02-12T21:23:20;4.97;;;2.05;;
45316;SDS011;31053;55.870;37.592;2023-02-12T21:26:29;4.18;;;1.65;;
45316;SDS011;31053;55.870;37.592;2023-02-12T21:29:42;2.72;;;1.38;;
45316;SDS011;31053;55.870;37.592;2023-02-12T21:32:52;3.45;;;1.70;;
45316;SDS011;31053;55.870;37.592;2023-02-12T21:36:11;2.78;;;1.10;;
45316;SDS011;31053;55.870;37.592;2023-02-12T21:39:22;5.88;;;1.48;;
45316;SDS011;31053;55.870;37.592;2023-02-12T21:42:34;4.53;;;1.55;;
45316;SDS011;31053;55.870;37.592;2023-02-12T21:45:53;3.70;;;1.67;;
45316;SDS011;31053;55.870;37.592;2023-02-12T21:49:11;5.22;;;1.45;;
45316;SDS011;31053;55.870;37.592;2023-02-12T21:52:19;8.07;;;1.50;;
45316;SDS011;31053;55.870;37.592;2023-02-12T21:55:24;2.85;;;1.45;;
45316;SDS011;31053;55.870;37.592;2023-02-12T21:58:29;2.83;;;1.10;;
45316;SDS011;31053;55.870;37.592;2023-02-12T22:01:35;6.55;;;1.98;;
45316;SDS011;31053;55.870;37.592;2023-02-12T22:04:52;2.42;;;1.27;;
45316;SDS011;31053;55.870;37.592;2023-02-12T22:08:00;3.22;;;1.33;;
45316;SDS011;31053;55.870;37.592;2023-02-12T22:11:08;6.82;;;1.45;;
45316;SDS011;31053;55.870;37.592;2023-02-12T22:14:19;3.13;;;1.42;;
45316;SDS011;31053;55.870;37.592;2023-02-12T22:17:25;3.15;;;1.45;;